createdAt,value
2023-05-25T00:00:03.968Z,100845.63
2023-05-25T00:02:33.893Z,100848.53
2023-05-25T00:05:05.084Z,100851.22
2023-05-25T00:07:33.732Z,100857.25
2023-05-25T00:10:02.110Z,100854.72
2023-05-25T00:12:30.780Z,100849.50
2023-05-25T00:14:59.198Z,100858.00
2023-05-25T00:17:32.197Z,100855.94
2023-05-25T00:20:08.203Z,100855.94
2023-05-25T00:22:39.374Z,100855.75
2023-05-25T00:25:08.701Z,100859.13
2023-05-25T00:27:37.099Z,100852.03
2023-05-25T00:30:07.833Z,100850.16
2023-05-25T00:32:36.209Z,100852.41
2023-05-25T00:35:04.826Z,100852.13
2023-05-25T00:37:33.235Z,100848.88
2023-05-25T00:40:03.170Z,100843.84
2023-05-25T00:42:32.300Z,100844.19
2023-05-25T00:45:00.721Z,100841.78
2023-05-25T00:47:29.465Z,100849.69
2023-05-25T00:49:59.162Z,100851.09
2023-05-25T00:52:28.266Z,100846.81
2023-05-25T00:54:59.572Z,100852.97
2023-05-25T00:57:34.320Z,100849.97
2023-05-25T01:00:09.152Z,100848.31
2023-05-25T01:02:42.303Z,100850.63
2023-05-25T01:05:13.456Z,100848.78
2023-05-25T01:07:45.417Z,100842.63
2023-05-25T01:10:17.055Z,100846.44
2023-05-25T01:12:47.906Z,100837.13
2023-05-25T01:15:16.454Z,100843.94
2023-05-25T01:17:46.923Z,100842.81
2023-05-25T01:20:15.885Z,100841.50
2023-05-25T01:22:51.543Z,100846.06
2023-05-25T01:25:25.403Z,100842.91
2023-05-25T01:27:58.953Z,100837.72
2023-05-25T01:30:28.394Z,100841.44
2023-05-25T01:32:58.401Z,100840.19
2023-05-25T01:35:28.439Z,100839.94
2023-05-25T01:38:00.522Z,100839.09
2023-05-25T01:40:29.272Z,100843.84
2023-05-25T01:42:57.681Z,100844.69
2023-05-25T01:45:28.172Z,100840.31
2023-05-25T01:48:04.777Z,100824.84
2023-05-25T01:50:40.740Z,100786.09
2023-05-25T01:53:13.915Z,100836.78
2023-05-25T01:55:49.251Z,100829.13
2023-05-25T01:58:19.844Z,100844.97
2023-05-25T02:00:51.055Z,100842.81
2023-05-25T02:03:20.219Z,100838.63
2023-05-25T02:05:49.814Z,100839.19
2023-05-25T02:08:21.203Z,100842.28
2023-05-25T02:10:49.678Z,100841.78
2023-05-25T02:13:18.187Z,100845.16
2023-05-25T02:15:46.843Z,100848.50
2023-05-25T02:18:17.923Z,100850.56
2023-05-25T02:20:47.764Z,100799.56
2023-05-25T02:23:18.741Z,100848.50
2023-05-25T02:25:51.812Z,100856.22
2023-05-25T02:28:20.321Z,100858.47
2023-05-25T02:30:48.930Z,100857.63
2023-05-25T02:33:18.882Z,100857.28
2023-05-25T02:35:47.435Z,100855.19
2023-05-25T02:38:15.853Z,100866.00
2023-05-25T02:40:44.238Z,100856.50
2023-05-25T02:43:14.096Z,100849.72
2023-05-25T02:45:43.107Z,100848.69
2023-05-25T02:48:11.783Z,100855.94
2023-05-25T02:50:40.158Z,100852.78
2023-05-25T02:53:11.963Z,100847.31
2023-05-25T02:55:40.708Z,100850.38
2023-05-25T02:58:13.430Z,100842.63
2023-05-25T03:01:01.408Z,100846.34
2023-05-25T03:03:30.496Z,100850.56
2023-05-25T03:05:59.030Z,100844.13
2023-05-25T03:08:27.614Z,100839.94
2023-05-25T03:10:56.228Z,100845.16
2023-05-25T03:13:26.272Z,100840.13
2023-05-25T03:15:54.675Z,100840.00
2023-05-25T03:18:24.736Z,100834.03
2023-05-25T03:20:53.263Z,100835.63
2023-05-25T03:23:21.718Z,100835.50
2023-05-25T03:25:52.592Z,100835.16
2023-05-25T03:28:23.040Z,100838.97
2023-05-25T03:30:53.023Z,100840.63
2023-05-25T03:33:21.444Z,100835.63
2023-05-25T03:35:51.243Z,100837.66
2023-05-25T03:38:19.662Z,100842.22
2023-05-25T03:40:48.712Z,100838.50
2023-05-25T03:43:17.116Z,100812.81
2023-05-25T03:45:48.423Z,100844.75
2023-05-25T03:48:19.056Z,100843.06
2023-05-25T03:50:48.420Z,100842.94
2023-05-25T03:53:17.703Z,100842.44
2023-05-25T03:55:46.843Z,100841.13
2023-05-25T03:58:16.254Z,100844.47
2023-05-25T04:00:44.840Z,100850.53
2023-05-25T04:03:13.271Z,100856.13
2023-05-25T04:05:43.613Z,100855.09
2023-05-25T04:08:12.187Z,100854.44
2023-05-25T04:10:42.806Z,100867.44
2023-05-25T04:13:11.222Z,100855.63
2023-05-25T04:15:39.711Z,100858.50
2023-05-25T04:18:12.075Z,100850.97
2023-05-25T04:20:40.794Z,100860.47
2023-05-25T04:23:13.291Z,100866.56
2023-05-25T04:25:45.765Z,100874.38
2023-05-25T04:28:16.010Z,100875.75
2023-05-25T04:31:02.423Z,100879.63
2023-05-25T04:33:45.587Z,100875.94
2023-05-25T04:36:35.525Z,100876.09
2023-05-25T04:39:08.102Z,100872.56
2023-05-25T04:41:41.198Z,100872.75
2023-05-25T04:44:11.807Z,100871.38
2023-05-25T04:46:44.764Z,100867.59
2023-05-25T04:49:19.905Z,100869.59
2023-05-25T04:51:48.462Z,100848.47
2023-05-25T04:54:18.479Z,100853.97
2023-05-25T04:56:47.113Z,100874.84
2023-05-25T04:59:16.431Z,100873.47
2023-05-25T05:01:46.015Z,100873.22
2023-05-25T05:04:18.087Z,100877.22
2023-05-25T05:06:47.473Z,100881.25
2023-05-25T05:09:21.689Z,100878.53
2023-05-25T05:11:50.562Z,100876.84
2023-05-25T05:14:20.442Z,100870.78
2023-05-25T05:16:50.436Z,100870.97
2023-05-25T05:19:18.886Z,100872.47
2023-05-25T05:21:47.790Z,100877.81
2023-05-25T05:24:18.360Z,100877.22
2023-05-25T05:26:58.112Z,100878.38
2023-05-25T05:29:31.483Z,100881.25
2023-05-25T05:31:59.984Z,100879.50
2023-05-25T05:34:28.394Z,100891.72
2023-05-25T05:36:58.794Z,100891.44
2023-05-25T05:39:29.241Z,100881.94
2023-05-25T05:41:59.661Z,100889.69
2023-05-25T05:44:29.477Z,100889.50
2023-05-25T05:47:01.830Z,100893.69
2023-05-25T05:49:32.141Z,100895.56
2023-05-25T05:52:02.391Z,100892.84
2023-05-25T05:54:32.237Z,100888.94
2023-05-25T05:57:07.867Z,100889.78
2023-05-25T05:59:36.260Z,100895.00
2023-05-25T06:02:04.850Z,100891.53
2023-05-25T06:04:33.762Z,100900.13
2023-05-25T06:07:02.211Z,100899.75
2023-05-25T06:09:30.796Z,100899.38
2023-05-25T06:12:01.875Z,100901.53
2023-05-25T06:14:32.054Z,100897.25
2023-05-25T06:17:03.620Z,100903.31
2023-05-25T06:19:32.177Z,100914.41
2023-05-25T06:22:00.725Z,100906.38
2023-05-25T06:24:29.182Z,100909.84
2023-05-25T06:26:57.620Z,100904.91
2023-05-25T06:29:27.065Z,100910.13
2023-05-25T06:31:57.247Z,100911.22
2023-05-25T06:34:26.143Z,100900.19
2023-05-25T06:36:54.578Z,100877.13
2023-05-25T06:39:22.981Z,100914.78
2023-05-25T06:41:52.331Z,100912.88
2023-05-25T06:44:30.839Z,100909.38
2023-05-25T06:47:04.424Z,100906.25
2023-05-25T06:49:33.056Z,100902.16
2023-05-25T06:52:01.774Z,100903.63
2023-05-25T06:54:31.312Z,100900.09
2023-05-25T06:56:59.739Z,100908.50
2023-05-25T06:59:28.219Z,100905.78
2023-05-25T07:01:59.178Z,100905.13
2023-05-25T07:04:29.730Z,100911.19
2023-05-25T07:06:58.167Z,100914.16
2023-05-25T07:09:26.545Z,100916.69
2023-05-25T07:11:55.112Z,100920.69
2023-05-25T07:14:23.472Z,100917.16
2023-05-25T07:16:51.960Z,100909.22
2023-05-25T07:19:20.347Z,100918.00
2023-05-25T07:21:50.164Z,100929.47
2023-05-25T07:24:19.183Z,100928.41
2023-05-25T07:26:48.437Z,100928.88
2023-05-25T07:29:17.074Z,100933.91
2023-05-25T07:31:47.281Z,100933.72
2023-05-25T07:34:16.417Z,100935.38
2023-05-25T07:36:44.885Z,100947.44
2023-05-25T07:39:14.754Z,100950.13
2023-05-25T07:41:43.242Z,100950.59
2023-05-25T07:44:14.073Z,100957.03
2023-05-25T07:46:42.542Z,100957.88
2023-05-25T07:49:15.966Z,100952.94
2023-05-25T07:51:44.909Z,100964.22
2023-05-25T07:54:14.850Z,100957.13
2023-05-25T07:56:43.333Z,100967.56
2023-05-25T07:59:12.761Z,100960.09
2023-05-25T08:01:41.401Z,100970.59
2023-05-25T08:04:09.983Z,100969.03
2023-05-25T08:06:38.707Z,100971.63
2023-05-25T08:09:08.208Z,100980.28
2023-05-25T08:11:38.117Z,100966.53
2023-05-25T08:14:06.423Z,100976.00
2023-05-25T08:16:34.905Z,100980.47
2023-05-25T08:19:03.260Z,100985.16
2023-05-25T08:21:35.071Z,100982.19
2023-05-25T08:24:05.224Z,100982.66
2023-05-25T08:26:52.903Z,100989.47
2023-05-25T08:29:24.111Z,100988.13
2023-05-25T08:31:52.475Z,100994.03
2023-05-25T08:34:23.513Z,100994.47
2023-05-25T08:36:51.920Z,101003.84
2023-05-25T08:39:20.398Z,101005.06
2023-05-25T08:41:51.187Z,101005.88
2023-05-25T08:44:20.275Z,101005.41
2023-05-25T08:46:50.599Z,101012.97
2023-05-25T08:49:19.152Z,101015.03
2023-05-25T08:51:51.011Z,101013.34
2023-05-25T08:54:20.748Z,101028.97
2023-05-25T08:56:52.302Z,101021.69
2023-05-25T08:59:33.463Z,101032.16
2023-05-25T09:02:23.807Z,101032.97
2023-05-25T09:04:52.368Z,101037.56
2023-05-25T09:07:21.383Z,101042.41
2023-05-25T09:09:50.493Z,101037.63
2023-05-25T09:12:19.950Z,101042.06
2023-05-25T09:14:49.024Z,101057.75
2023-05-25T09:17:20.124Z,101049.44
2023-05-25T09:19:49.197Z,101051.75
2023-05-25T09:22:17.837Z,101061.47
2023-05-25T09:24:46.647Z,101060.84
2023-05-25T09:27:19.168Z,101070.53
2023-05-25T09:29:49.712Z,101066.41
2023-05-25T09:32:20.313Z,101072.88
2023-05-25T09:34:48.993Z,101075.59
2023-05-25T09:37:19.407Z,101079.56
2023-05-25T09:39:49.182Z,101076.91
2023-05-25T09:42:18.714Z,101079.00
2023-05-25T09:44:47.219Z,101077.31
2023-05-25T09:47:17.123Z,101078.59
2023-05-25T09:49:49.648Z,101082.84
2023-05-25T09:52:18.223Z,101093.72
2023-05-25T09:54:47.581Z,101097.53
2023-05-25T09:57:17.023Z,101097.38
2023-05-25T09:59:46.164Z,101090.91
2023-05-25T10:02:15.286Z,101102.16
2023-05-25T10:04:43.801Z,101108.66
2023-05-25T10:07:16.280Z,101119.50
2023-05-25T10:09:47.790Z,101113.44
2023-05-25T10:12:20.272Z,101115.53
2023-05-25T10:14:52.332Z,101125.53
2023-05-25T10:17:25.605Z,101135.09
2023-05-25T10:19:58.758Z,101139.09
2023-05-25T10:22:33.895Z,101140.34
2023-05-25T10:25:10.788Z,101155.34
2023-05-25T10:27:42.610Z,101116.63
2023-05-25T10:30:11.864Z,101156.16
2023-05-25T10:32:41.795Z,101154.94
2023-05-25T10:35:11.464Z,101152.69
2023-05-25T10:37:41.718Z,101147.13
2023-05-25T10:40:11.063Z,101153.03
2023-05-25T10:42:40.259Z,101151.00
2023-05-25T10:45:10.526Z,101142.09
2023-05-25T10:47:42.957Z,101149.03
2023-05-25T10:50:20.827Z,101155.59
2023-05-25T10:53:00.131Z,101156.28
2023-05-25T10:55:32.026Z,101149.41
2023-05-25T10:58:10.684Z,101139.38
2023-05-25T11:00:39.983Z,101152.34
2023-05-25T11:03:08.891Z,101150.31
2023-05-25T11:05:39.501Z,101142.56
2023-05-25T11:08:12.404Z,101165.56
2023-05-25T11:10:45.848Z,101162.00
2023-05-25T11:13:25.546Z,101160.56
2023-05-25T11:16:09.330Z,101163.28
2023-05-25T11:18:43.831Z,101161.38
2023-05-25T11:21:24.232Z,101155.09
2023-05-25T11:23:58.749Z,101161.81
2023-05-25T11:26:30.868Z,101135.41
2023-05-25T11:29:00.283Z,101168.25
2023-05-25T11:31:39.720Z,101170.34
2023-05-25T11:34:12.059Z,101169.09
2023-05-25T11:36:41.484Z,101166.78
2023-05-25T11:39:20.908Z,101163.81
2023-05-25T11:41:56.215Z,101170.50
2023-05-25T11:44:29.741Z,101163.78
2023-05-25T11:46:58.669Z,101170.91
2023-05-25T11:49:27.088Z,101170.50
2023-05-25T11:51:55.730Z,101169.88
2023-05-25T11:54:27.256Z,101178.06
2023-05-25T11:56:59.437Z,101170.56
2023-05-25T11:59:30.566Z,101140.19
2023-05-25T12:02:02.308Z,101186.03
2023-05-25T12:04:33.122Z,101174.72
2023-05-25T12:07:04.937Z,101173.44
2023-05-25T12:09:35.268Z,101158.34
2023-05-25T12:12:05.366Z,101173.00
2023-05-25T12:14:37.438Z,101169.47
2023-05-25T12:17:07.713Z,101181.03
2023-05-25T12:19:36.585Z,101168.25
2023-05-25T12:22:05.173Z,101175.81
2023-05-25T12:24:35.094Z,101167.41
2023-05-25T12:27:06.033Z,101177.25
2023-05-25T12:29:34.440Z,101178.50
2023-05-25T12:32:06.985Z,101175.97
2023-05-25T12:34:35.869Z,101184.78
2023-05-25T12:37:04.215Z,101192.97
2023-05-25T12:39:39.527Z,101188.97
2023-05-25T12:42:15.306Z,101180.13
2023-05-25T12:44:44.581Z,101189.09
2023-05-25T12:47:14.760Z,101185.59
2023-05-25T12:49:45.271Z,101197.13
2023-05-25T12:52:33.527Z,101195.47
2023-05-25T12:55:20.535Z,101200.91
2023-05-25T12:57:52.574Z,101196.50
2023-05-25T13:00:23.745Z,101196.94
2023-05-25T13:02:52.591Z,101196.53
2023-05-25T13:05:25.170Z,101196.97
2023-05-25T13:07:55.499Z,101194.06
2023-05-25T13:10:26.275Z,101201.19
2023-05-25T13:12:57.335Z,101208.09
2023-05-25T13:15:27.064Z,101209.13
2023-05-25T13:17:56.451Z,101208.09
2023-05-25T13:20:26.544Z,101200.97
2023-05-25T13:22:55.918Z,101199.09
2023-05-25T13:25:27.804Z,101206.41
2023-05-25T13:27:58.033Z,101206.41
2023-05-25T13:30:27.965Z,101202.19
2023-05-25T13:32:56.423Z,101212.25
2023-05-25T13:35:37.921Z,101207.22
2023-05-25T13:38:06.731Z,101214.13
2023-05-25T13:40:36.606Z,101212.00
2023-05-25T13:43:05.036Z,101214.91
2023-05-25T13:45:33.632Z,101208.81
2023-05-25T13:48:02.151Z,101215.13
2023-05-25T13:50:30.708Z,101214.91
2023-05-25T13:52:59.270Z,101214.69
2023-05-25T13:55:27.728Z,101209.44
2023-05-25T13:57:57.502Z,101209.84
2023-05-25T14:00:25.953Z,101213.28
2023-05-25T14:02:54.527Z,101221.25
2023-05-25T14:05:24.172Z,101220.44
2023-05-25T14:07:55.677Z,101226.28
2023-05-25T14:10:24.745Z,101221.03
2023-05-25T14:12:53.115Z,101218.72
2023-05-25T14:15:22.965Z,101218.50
2023-05-25T14:17:51.374Z,101225.00
2023-05-25T14:20:25.865Z,101231.72
2023-05-25T14:22:55.049Z,101226.50
2023-05-25T14:25:23.360Z,101225.03
2023-05-25T14:27:51.857Z,101233.19
2023-05-25T14:30:20.307Z,101150.28
2023-05-25T14:32:50.239Z,101229.66
2023-05-25T14:35:18.701Z,101230.91
2023-05-25T14:37:47.015Z,101224.22
2023-05-25T14:40:15.442Z,101224.63
2023-05-25T14:42:44.223Z,101229.69
2023-05-25T14:45:15.255Z,101234.50
2023-05-25T14:47:44.434Z,101237.22
2023-05-25T14:50:14.349Z,101239.72
2023-05-25T14:52:43.304Z,101239.53
2023-05-25T14:55:12.039Z,101229.25
2023-05-25T14:57:40.536Z,101236.56
2023-05-25T15:00:10.170Z,101234.09
2023-05-25T15:02:38.927Z,101234.91
2023-05-25T15:05:08.701Z,101237.19
2023-05-25T15:07:38.634Z,101246.00
2023-05-25T15:10:08.012Z,101241.81
2023-05-25T15:12:36.467Z,101236.16
2023-05-25T15:15:05.228Z,101235.53
2023-05-25T15:17:33.657Z,101239.72
2023-05-25T15:20:02.363Z,101239.31
2023-05-25T15:22:30.827Z,101240.75
2023-05-25T15:25:02.549Z,101246.84
2023-05-25T15:27:32.364Z,101239.72
2023-05-25T15:30:00.736Z,101240.75
2023-05-25T15:32:29.341Z,101240.13
2023-05-25T15:34:57.753Z,101241.81
2023-05-25T15:37:26.140Z,101241.59
2023-05-25T15:39:54.514Z,101250.41
2023-05-25T15:42:24.399Z,101252.06
2023-05-25T15:44:52.869Z,101256.06
2023-05-25T15:47:21.418Z,101258.56
2023-05-25T15:49:49.823Z,101250.19
2023-05-25T15:52:18.204Z,101248.94
2023-05-25T15:54:47.591Z,101245.59
2023-05-25T15:57:15.970Z,101245.38
2023-05-25T15:59:45.822Z,101249.34
2023-05-25T16:02:14.382Z,101235.94
2023-05-25T16:04:42.916Z,101241.81
2023-05-25T16:07:11.405Z,101238.22
2023-05-25T16:09:39.809Z,101243.88
2023-05-25T16:12:08.604Z,101246.56
2023-05-25T16:14:37.045Z,101255.72
2023-05-25T16:17:07.218Z,101259.25
2023-05-25T16:19:35.641Z,101247.31
2023-05-25T16:22:04.088Z,101258.78
2023-05-25T16:24:32.532Z,101251.63
2023-05-25T16:27:01.066Z,101253.72
2023-05-25T16:29:29.599Z,101256.19
2023-05-25T16:31:58.028Z,101252.84
2023-05-25T16:34:27.877Z,101259.25
2023-05-25T16:36:57.297Z,101265.91
2023-05-25T16:39:25.643Z,101262.56
2023-05-25T16:41:54.122Z,101262.75
2023-05-25T16:44:22.459Z,101266.91
2023-05-25T16:46:50.815Z,101262.91
2023-05-25T16:49:19.298Z,101263.50
2023-05-25T16:51:49.077Z,101267.84
2023-05-25T16:54:17.608Z,101269.25
2023-05-25T16:56:46.372Z,101257.28
2023-05-25T16:59:14.714Z,101273.84
2023-05-25T17:01:43.211Z,101276.81
2023-05-25T17:04:11.795Z,101278.25
2023-05-25T17:06:40.313Z,101279.94
2023-05-25T17:09:11.926Z,101282.25
2023-05-25T17:11:40.431Z,101278.91
2023-05-25T17:14:08.993Z,101277.22
2023-05-25T17:16:37.473Z,101269.25
2023-05-25T17:19:05.869Z,101276.56
2023-05-25T17:21:35.036Z,101279.53
2023-05-25T17:24:03.642Z,101282.44
2023-05-25T17:26:33.504Z,101281.16
2023-05-25T17:29:01.947Z,101280.56
2023-05-25T17:31:30.345Z,101291.22
2023-05-25T17:33:58.830Z,101294.56
2023-05-25T17:36:27.379Z,101301.44
2023-05-25T17:38:55.835Z,101292.66
2023-05-25T17:41:25.292Z,101301.84
2023-05-25T17:43:55.008Z,101299.38
2023-05-25T17:46:23.434Z,101303.31
2023-05-25T17:48:51.957Z,101304.81
2023-05-25T17:51:21.758Z,101299.78
2023-05-25T17:53:50.363Z,101304.75
2023-05-25T17:56:19.711Z,101298.03
2023-05-25T17:58:48.370Z,101308.00
2023-05-25T18:01:18.283Z,101313.16
2023-05-25T18:03:50.773Z,101314.59
2023-05-25T18:06:19.357Z,101317.53
2023-05-25T18:08:47.757Z,101320.44
2023-05-25T18:11:16.208Z,101318.75
2023-05-25T18:13:44.657Z,101323.75
2023-05-25T18:16:13.054Z,101331.69
2023-05-25T18:18:42.836Z,101327.94
2023-05-25T18:21:11.301Z,101336.66
2023-05-25T18:23:39.615Z,101330.78
2023-05-25T18:26:08.075Z,101333.00
2023-05-25T18:28:36.351Z,101329.84
2023-05-25T18:31:04.824Z,101327.69
2023-05-25T18:33:33.201Z,101333.72
2023-05-25T18:36:03.017Z,101332.06
2023-05-25T18:38:31.418Z,101338.06
2023-05-25T18:40:59.822Z,101332.81
2023-05-25T18:43:28.236Z,101322.06
2023-05-25T18:45:56.636Z,101335.06
2023-05-25T18:48:25.980Z,101334.63
2023-05-25T18:50:54.409Z,101338.09
2023-05-25T18:53:24.277Z,101326.78
2023-05-25T18:55:52.865Z,101331.97
2023-05-25T18:58:22.207Z,101336.94
2023-05-25T19:00:50.681Z,101344.97
2023-05-25T19:03:19.301Z,101345.34
2023-05-25T19:05:47.831Z,101334.78
2023-05-25T19:08:16.246Z,101342.50
2023-05-25T19:10:46.092Z,101353.25
2023-05-25T19:13:14.552Z,101360.06
2023-05-25T19:15:43.256Z,101361.94
2023-05-25T19:18:11.811Z,101366.53
2023-05-25T19:20:40.265Z,101361.09
2023-05-25T19:23:08.740Z,101365.66
2023-05-25T19:25:37.150Z,101359.56
2023-05-25T19:28:06.939Z,101369.94
2023-05-25T19:30:35.278Z,101374.25
2023-05-25T19:33:04.079Z,101370.06
2023-05-25T19:35:32.630Z,101374.16
2023-05-25T19:38:02.094Z,101377.63
2023-05-25T19:40:30.929Z,101382.75
2023-05-25T19:42:59.622Z,101376.84
2023-05-25T19:45:29.438Z,101386.19
2023-05-25T19:47:58.062Z,101387.59
2023-05-25T19:50:30.550Z,101390.03
2023-05-25T19:52:59.639Z,101406.00
2023-05-25T19:55:28.517Z,101395.88
2023-05-25T19:57:57.023Z,101397.28
2023-05-25T20:00:26.974Z,101399.88
2023-05-25T20:02:57.359Z,101401.28
2023-05-25T20:05:25.774Z,101403.03
2023-05-25T20:07:56.032Z,101412.22
2023-05-25T20:10:24.432Z,101424.13
2023-05-25T20:12:52.859Z,101424.50
2023-05-25T20:15:21.358Z,101423.66
2023-05-25T20:17:49.789Z,101423.34
2023-05-25T20:20:19.716Z,101430.78
2023-05-25T20:22:48.197Z,101431.31
2023-05-25T20:25:16.630Z,101438.28
2023-05-25T20:27:45.047Z,101441.06
2023-05-25T20:30:17.109Z,101432.81
2023-05-25T20:32:45.898Z,101438.75
2023-05-25T20:35:14.847Z,101438.75
2023-05-25T20:37:44.760Z,101438.09
2023-05-25T20:40:13.226Z,101434.41
2023-05-25T20:42:41.786Z,101439.69
2023-05-25T20:45:10.990Z,101440.88
2023-05-25T20:47:41.844Z,101447.13
2023-05-25T20:50:10.480Z,101434.13
2023-05-25T20:52:39.007Z,101440.72
2023-05-25T20:55:09.961Z,101444.28
2023-05-25T20:57:38.343Z,101441.44
2023-05-25T21:00:08.410Z,101442.13
2023-05-25T21:02:36.923Z,101445.50
2023-05-25T21:05:05.828Z,101455.50
2023-05-25T21:07:34.244Z,101446.22
2023-05-25T21:10:04.309Z,101448.09
2023-05-25T21:12:34.223Z,101444.38
2023-05-25T21:15:02.648Z,101441.22
2023-05-25T21:17:31.398Z,101445.59
2023-05-25T21:19:59.840Z,101448.47
2023-05-25T21:22:28.268Z,101455.25
2023-05-25T21:24:56.752Z,101453.88
2023-05-25T21:27:25.125Z,101449.88
2023-05-25T21:29:55.706Z,101446.81
2023-05-25T21:32:24.205Z,101445.13
2023-05-25T21:34:52.991Z,101448.16
2023-05-25T21:37:21.951Z,101442.13
2023-05-25T21:39:50.570Z,101446.84
2023-05-25T21:42:18.983Z,101448.38
2023-05-25T21:44:47.416Z,101447.84
2023-05-25T21:47:17.389Z,101451.91
2023-05-25T21:49:45.913Z,101450.84
2023-05-25T21:52:20.302Z,101449.66
2023-05-25T21:54:48.874Z,101449.13
2023-05-25T21:57:17.337Z,101455.38
2023-05-25T21:59:45.781Z,101452.69
2023-05-25T22:02:14.218Z,101450.50
2023-05-25T22:04:44.185Z,101458.78
2023-05-25T22:07:12.700Z,101446.94
2023-05-25T22:09:41.133Z,101449.94
2023-05-25T22:12:12.157Z,101454.34
2023-05-25T22:14:40.635Z,101449.25
2023-05-25T22:17:10.130Z,101442.13
2023-05-25T22:19:38.725Z,101446.31
2023-05-25T22:22:08.519Z,101443.63
2023-05-25T22:24:37.013Z,101443.28
2023-05-25T22:27:06.150Z,101444.47
2023-05-25T22:29:34.572Z,101450.50
2023-05-25T22:32:03.012Z,101450.66
2023-05-25T22:34:31.561Z,101445.53
2023-05-25T22:36:59.977Z,101446.06
2023-05-25T22:39:29.854Z,101442.81
2023-05-25T22:41:58.298Z,101449.84
2023-05-25T22:44:26.673Z,101433.97
2023-05-25T22:46:55.206Z,101436.84
2023-05-25T22:49:23.770Z,101429.91
2023-05-25T22:51:52.136Z,101435.47
2023-05-25T22:54:20.674Z,101431.59
2023-05-25T22:56:51.307Z,101436.44
2023-05-25T22:59:19.917Z,101440.97
2023-05-25T23:01:48.426Z,101428.16
2023-05-25T23:04:17.108Z,101434.84
2023-05-25T23:06:45.661Z,101430.47
2023-05-25T23:09:14.245Z,101412.56
2023-05-25T23:11:42.578Z,101428.25
2023-05-25T23:14:12.976Z,101422.31
2023-05-25T23:16:41.778Z,101427.38
2023-05-25T23:19:10.221Z,101431.06
2023-05-25T23:21:38.695Z,101428.16
2023-05-25T23:24:07.745Z,101428.16
2023-05-25T23:26:36.200Z,101429.47
2023-05-25T23:29:04.599Z,101422.00
2023-05-25T23:31:34.800Z,101422.16
2023-05-25T23:34:03.214Z,101418.78
2023-05-25T23:36:31.669Z,101415.94
2023-05-25T23:39:00.153Z,101419.47
2023-05-25T23:41:28.745Z,101418.78
2023-05-25T23:43:57.872Z,101415.53
2023-05-25T23:46:27.863Z,101392.78
2023-05-25T23:48:57.780Z,101416.22
2023-05-25T23:51:26.309Z,101408.63
2023-05-25T23:53:54.701Z,101407.47
2023-05-25T23:56:23.210Z,101383.25
2023-05-25T23:58:51.700Z,101402.06
